Nashville, TN (37219)

7:14 PM CDT on April 28, 2017 (GMT -0500)
Highland Heights | | Change Station
Active Advisory: Flood Advisory Active Notice: Flood Advisory

Elev 0 ft 36.20 °N, 86.76 °W | Updated 3 seconds ago

Partly Cloudy
Partly Cloudy
81.5 °F
Feels Like 84 °F
N
0.0
Wind Variable Wind from NE
Gusts 0.0 mph

Today
High -- | Low -- °F
--% Chance of Precip.
Yesterday
High -- | Low -- °F
Precip. -- in
Pressure 29.88 in
Visibility 10.0 miles
Clouds Few 5500 ft
Scattered Clouds 25000 ft
Heat Index 84 °F
Dew Point 68 °F
Humidity 64%
Rainfall 0.00 in
Snow Depth Not available.
5:57 AM 7:32 PM
Waxing Crescent, 9% visible
METAR KBNA 282353Z 18008KT 10SM FEW055 SCT250 27/19 A2989 RMK AO2 SLP116 60001 T02670194 10289 20233 53005
Pressure 29.88 in
Visibility 10.0 miles
Clouds Few 5500 ft
Scattered Clouds 25000 ft
Heat Index 84 °F
Dew Point 68 °F
Humidity 64%
Rainfall 0.00 in
Snow Depth Not available.
5:57 AM 7:32 PM
Waxing Crescent, 9% visible
METAR KBNA 282353Z 18008KT 10SM FEW055 SCT250 27/19 A2989 RMK AO2 SLP116 60001 T02670194 10289 20233 53005

Get Your Daily Forecast Email!

Thanks for signing up!

Be on the lookout for a verification email in your inbox.

You'll start receiving severe weather alerts in your inbox..

×

10-Day Weather Forecast

Almanac

Astronomy

Apr. 28, 2017 Rise Set
Actual Time
Civil Twilight
Nautical Twilight
Astronomical Twilight
Moon
Length of Visible Light
Length of Day
Tomorrow will be .
, % of the Moon is Illuminated

Today's Extremes

State Highs State Lows

Community

WunderPhotos

WunderBlog® & News

Nearby

Air Quality

  Air Quality AQ Index Pollutant
Not available.

Snow Depth

Station Depth Elevation

Earthquake Activity

City Distance Mag. Time & Date
Minimum magnitude displayed is 2.5.

Coastal Water Temperatures

Place Temperature

Stations

Nearby Weather Stations

Station Location Temp. Windchill Dew Point Humidity Wind Precip. Elev Updated Type
                   

Watches & Warnings

Flood Advisory
Issued: 8:02 AM CDT Apr. 28, 2017 – National Weather Service

The flood advisory continues for
the stones river near Donelson
* until Saturday evening.
* At 7 am Friday the stage was 22.8 feet.
* Flood stage is 35.0 feet.
* Action stage is 20.0 feet.
* At 20.0 feet... portions of the stones river Greenway between Percy priest dam and Lebanon Road are inundated.